Time;durP1;ratioP1;P1;durP2;ratioP2;P2;SDS_P1;SDS_P2;PMS_P1;PMS_P2;Temp;Humidity;BMP_temperature;BMP_pressure;BME280_temperature;BME280_humidity;BME280_pressure;Samples;Min_cycle;Max_cycle;Signal;HPM_P1;HPM_P2
2022/03/27 00:00:45;;;;;;;0.40;0.30;;;;;;;4.04;93.05;102576.16;5033377;28;20553;-72
2022/03/27 00:03:13;;;;;;;0.40;0.30;;;;;;;4.08;90.74;102581.94;5033370;28;20446;-73
2022/03/27 00:05:40;;;;;;;0.40;0.30;;;;;;;3.94;90.49;102573.03;5033315;28;20443;-71
2022/03/27 00:08:07;;;;;;;0.40;0.30;;;;;;;3.83;90.84;102574.50;5032997;28;20447;-71
2022/03/27 00:11:23;;;;;;;0.40;0.30;;;;;;;3.69;90.72;102572.88;5033219;28;20864;-69
2022/03/27 00:13:21;;;;;;;1.63;1.27;;;;;;;3.55;91.05;102580.06;5032660;28;20439;-71
2022/03/27 00:15:47;;;;;;;0.40;0.40;;;;;;;3.56;90.34;102575.53;5033190;28;20443;-71
2022/03/27 00:18:15;;;;;;;0.40;0.30;;;;;;;3.64;90.40;102576.16;5033201;28;20442;-72
2022/03/27 00:20:41;;;;;;;0.40;0.30;;;;;;;3.64;90.54;102583.38;5033216;28;20486;-72
2022/03/27 00:23:08;;;;;;;0.47;0.30;;;;;;;3.52;90.33;102578.63;5033202;28;20451;-71
2022/03/27 00:25:34;;;;;;;1.53;1.43;;;;;;;3.34;91.08;102577.56;5033141;28;20471;-72
2022/03/27 00:28:00;;;;;;;7.13;6.50;;;;;;;3.43;90.76;102573.66;5032948;28;20956;-71
2022/03/27 00:30:27;;;;;;;2.67;1.33;;;;;;;3.34;90.89;102567.69;5032633;28;20477;-71
2022/03/27 00:32:53;;;;;;;0.40;0.30;;;;;;;3.22;91.76;102571.97;5033105;28;20521;-70
2022/03/27 00:35:22;;;;;;;0.40;0.30;;;;;;;3.20;92.02;102577.53;5033055;28;20474;-72
2022/03/27 00:37:51;;;;;;;2.63;2.43;;;;;;;3.33;90.49;102574.06;5032993;28;20454;-71
2022/03/27 00:40:17;;;;;;;0.40;0.30;;;;;;;3.20;90.79;102566.81;5032851;28;20483;-71
2022/03/27 00:42:45;;;;;;;0.40;0.30;;;;;;;3.21;90.58;102568.47;5033040;28;20451;-72
2022/03/27 00:45:11;;;;;;;0.40;0.30;;;;;;;3.10;92.04;102578.94;5032998;28;20505;-70
2022/03/27 00:47:38;;;;;;;0.40;0.30;;;;;;;3.04;92.39;102578.72;5033004;28;20439;-71
2022/03/27 00:50:05;;;;;;;0.40;0.30;;;;;;;3.07;91.93;102577.50;5033055;28;20806;-71
2022/03/27 00:52:33;;;;;;;0.40;0.30;;;;;;;3.10;91.79;102582.47;5033050;28;20485;-72
2022/03/27 00:55:00;;;;;;;0.40;0.30;;;;;;;3.14;90.59;102572.97;5033140;28;20454;-71
2022/03/27 00:57:27;;;;;;;0.40;0.30;;;;;;;3.27;90.18;102574.88;5032759;28;20945;-72
2022/03/27 00:59:53;;;;;;;0.40;0.30;;;;;;;3.16;89.93;102570.94;5032791;28;20493;-71
2022/03/27 01:02:21;;;;;;;0.40;0.30;;;;;;;3.08;91.73;102568.44;5032902;28;20541;-72
2022/03/27 01:04:48;;;;;;;2.63;2.53;;;;;;;3.04;92.99;102572.53;5033337;28;20492;-72
2022/03/27 01:07:18;;;;;;;0.40;0.30;;;;;;;2.95;94.28;102569.22;5036555;28;20481;-73
2022/03/27 01:09:46;;;;;;;0.40;0.30;;;;;;;3.00;94.85;102565.94;5036520;28;20486;-71
2022/03/27 01:12:15;;;;;;;0.40;0.40;;;;;;;3.08;94.54;102563.09;5036429;28;20454;-71
2022/03/27 01:14:42;;;;;;;0.40;0.30;;;;;;;3.14;93.01;102558.75;5036523;28;20561;-71
2022/03/27 01:17:09;;;;;;;0.60;0.60;;;;;;;3.27;92.37;102556.94;5036063;28;20443;-71
2022/03/27 01:19:40;;;;;;;0.40;0.30;;;;;;;3.42;91.58;102564.00;5036568;28;20541;-72
2022/03/27 01:22:08;;;;;;;0.40;0.40;;;;;;;3.38;91.99;102563.56;5036498;28;20428;-71
2022/03/27 01:24:35;;;;;;;0.40;0.30;;;;;;;3.35;91.51;102563.97;5036360;28;20446;-72
2022/03/27 01:27:01;;;;;;;0.40;0.30;;;;;;;3.16;92.48;102560.22;5036246;28;20446;-72
2022/03/27 01:29:28;;;;;;;0.40;0.40;;;;;;;3.04;93.36;102567.19;5035736;28;20875;-72
2022/03/27 01:31:55;;;;;;;0.40;0.30;;;;;;;2.96;91.09;102570.03;5036224;28;20449;-71
2022/03/27 01:34:21;;;;;;;0.40;0.30;;;;;;;2.91;90.07;102567.97;5036178;28;20446;-72
2022/03/27 01:36:48;;;;;;;0.53;0.50;;;;;;;2.75;91.17;102571.84;5035672;28;20941;-71
2022/03/27 01:39:17;;;;;;;30.20;27.43;;;;;;;2.65;92.15;102571.38;5035906;28;20467;-72
2022/03/27 01:41:44;;;;;;;2.57;2.40;;;;;;;2.59;92.18;102569.50;5035825;28;20447;-72
2022/03/27 01:44:13;;;;;;;0.60;0.60;;;;;;;2.53;94.08;102570.28;5035776;28;20439;-72
2022/03/27 01:46:41;;;;;;;0.40;0.30;;;;;;;2.60;93.79;102573.81;5035894;28;20443;-71
2022/03/27 01:49:10;;;;;;;0.40;0.37;;;;;;;2.61;92.58;102575.50;5035757;28;20523;-71
2022/03/27 01:51:37;;;;;;;0.40;0.30;;;;;;;2.70;92.12;102576.13;5035725;28;20454;-71
2022/03/27 01:54:04;;;;;;;0.40;0.30;;;;;;;2.83;92.21;102580.69;5035666;28;20450;-70
2022/03/27 01:56:32;;;;;;;0.40;0.30;;;;;;;2.70;91.66;102584.13;5035633;28;20450;-72
2022/03/27 01:58:59;;;;;;;0.67;0.67;;;;;;;2.69;92.09;102586.00;5035554;28;20467;-71
2022/03/27 02:01:26;;;;;;;1.33;1.27;;;;;;;2.61;90.67;102583.50;5035181;28;20999;-71
2022/03/27 02:03:54;;;;;;;0.40;0.30;;;;;;;2.59;90.79;102590.06;5035625;28;20451;-70
2022/03/27 02:06:23;;;;;;;0.40;0.40;;;;;;;2.46;91.79;102590.81;5035443;28;20447;-71
2022/03/27 02:08:50;;;;;;;0.40;0.30;;;;;;;2.41;91.69;102586.06;5035513;28;20467;-70
2022/03/27 02:11:17;;;;;;;1.27;1.27;;;;;;;2.23;92.16;102596.44;5035416;28;20470;-72
2022/03/27 02:13:45;;;;;;;1.80;1.70;;;;;;;2.26;92.49;102586.19;5035405;28;20435;-71
2022/03/27 02:16:11;;;;;;;0.40;0.30;;;;;;;2.34;91.32;102593.22;5035196;28;20501;-72
2022/03/27 02:18:41;;;;;;;0.40;0.30;;;;;;;2.42;92.17;102594.91;5035210;28;20462;-72
2022/03/27 02:21:08;;;;;;;0.40;0.30;;;;;;;2.48;93.02;102594.97;5035141;28;20489;-70
2022/03/27 02:23:34;;;;;;;0.40;0.30;;;;;;;2.42;93.62;102600.25;5035172;28;20439;-71
2022/03/27 02:26:01;;;;;;;0.40;0.30;;;;;;;2.56;92.83;102595.81;5035101;28;20443;-70
2022/03/27 02:28:27;;;;;;;1.90;1.80;;;;;;;2.47;93.03;102600.50;5034765;28;20455;-72
2022/03/27 02:30:55;;;;;;;0.40;0.30;;;;;;;2.34;94.02;102601.22;5086255;22;20499;-77
2022/03/27 02:33:22;;;;;;;1.13;1.13;;;;;;;2.37;93.47;102600.03;5095765;28;20440;-77
2022/03/27 02:35:49;;;;;;;0.40;0.30;;;;;;;2.55;93.22;102616.38;5095502;28;20455;-78
2022/03/27 02:38:15;;;;;;;1.80;1.70;;;;;;;2.60;92.74;102597.06;5095835;28;20432;-78
2022/03/27 02:40:43;;;;;;;1.03;1.03;;;;;;;2.66;92.01;102598.97;5095824;28;20487;-78
2022/03/27 02:43:10;;;;;;;3.07;2.97;;;;;;;2.46;91.85;102599.66;5095599;28;20791;-77
2022/03/27 02:45:37;;;;;;;0.40;0.30;;;;;;;2.60;90.76;102600.56;5095233;28;20432;-77
2022/03/27 02:48:06;;;;;;;0.40;0.30;;;;;;;2.59;89.24;102604.25;5095297;28;20468;-77
2022/03/27 02:50:33;;;;;;;0.40;0.30;;;;;;;2.42;90.31;102603.75;5095273;28;20487;-77
2022/03/27 02:53:00;;;;;;;0.40;0.30;;;;;;;2.43;91.39;102608.06;5095388;28;20436;-78
2022/03/27 02:55:27;;;;;;;0.40;0.30;;;;;;;2.30;90.53;102604.50;5094956;28;20433;-77
2022/03/27 02:57:54;;;;;;;0.40;0.30;;;;;;;2.30;90.63;102604.50;5095069;28;20471;-77
2022/03/27 03:00:22;;;;;;;0.70;0.40;;;;;;;2.39;90.94;102606.84;5095005;28;20440;-77
2022/03/27 03:02:49;;;;;;;1.83;1.73;;;;;;;2.40;92.37;102608.50;5094999;28;20440;-77
2022/03/27 03:05:17;;;;;;;0.40;0.30;;;;;;;2.48;92.66;102604.84;5094975;28;20452;-78
2022/03/27 03:07:44;;;;;;;0.40;0.30;;;;;;;2.37;92.99;102610.72;5095867;28;20464;-78
2022/03/27 03:10:12;;;;;;;0.40;0.40;;;;;;;2.34;93.13;102600.41;5096212;28;20856;-79
2022/03/27 03:12:41;;;;;;;0.50;0.30;;;;;;;2.34;92.09;102611.09;5096136;28;20444;-78
2022/03/27 03:15:08;;;;;;;31.90;25.97;;;;;;;2.32;92.29;102600.63;5095572;28;20458;-78
2022/03/27 03:17:35;;;;;;;0.40;0.30;;;;;;;2.37;91.35;102598.19;5095382;28;20471;-77
2022/03/27 03:20:02;;;;;;;0.40;0.30;;;;;;;2.42;90.03;102606.44;5095739;28;20439;-78
2022/03/27 03:22:31;;;;;;;4.83;3.70;;;;;;;2.25;90.86;102602.41;5095931;28;20429;-78
2022/03/27 03:24:58;;;;;;;0.40;0.30;;;;;;;2.12;91.04;102600.47;5095763;28;20448;-78
2022/03/27 03:27:24;;;;;;;0.40;0.30;;;;;;;2.07;92.14;102592.22;5095198;28;20471;-78
2022/03/27 03:29:51;;;;;;;9.13;8.60;;;;;;;2.07;93.65;102594.88;5095269;28;20486;-78
2022/03/27 03:32:18;;;;;;;0.50;0.40;;;;;;;2.07;94.19;102599.41;5095446;28;20440;-78
2022/03/27 03:34:44;;;;;;;0.40;0.30;;;;;;;2.20;93.25;102599.50;5095539;28;20459;-78
2022/03/27 03:37:11;;;;;;;4.00;3.70;;;;;;;2.26;93.38;102601.41;5095321;28;20865;-78
2022/03/27 03:39:39;;;;;;;0.40;0.30;;;;;;;2.12;93.95;102594.28;5095047;28;20543;-78
2022/03/27 03:42:06;;;;;;;0.60;0.30;;;;;;;2.09;94.45;102605.41;5095446;28;20467;-78
2022/03/27 03:44:33;;;;;;;4.57;3.77;;;;;;;2.19;93.62;102606.69;5095320;28;20499;-78
2022/03/27 03:46:59;;;;;;;0.40;0.30;;;;;;;2.31;93.58;102608.84;5095555;28;20464;-78
2022/03/27 03:49:25;;;;;;;0.40;0.30;;;;;;;2.40;92.86;102608.50;5095294;28;20449;-78
2022/03/27 03:51:52;;;;;;;1.27;1.27;;;;;;;2.31;94.04;102612.34;5095334;28;20863;-78
2022/03/27 03:54:19;;;;;;;0.40;0.30;;;;;;;2.23;95.27;102607.97;5095354;28;20930;-78
2022/03/27 03:56:47;;;;;;;0.40;0.30;;;;;;;2.16;95.61;102601.72;5095262;28;20468;-78
2022/03/27 03:59:14;;;;;;;0.40;0.30;;;;;;;2.30;94.36;102599.97;5095154;28;20960;-78
2022/03/27 04:01:40;;;;;;;15.43;14.10;;;;;;;2.41;93.06;102593.25;5095156;28;20441;-78
2022/03/27 04:04:07;;;;;;;0.40;0.30;;;;;;;2.17;94.96;102586.50;5094928;28;20531;-78
2022/03/27 04:06:33;;;;;;;0.40;0.30;;;;;;;2.24;95.27;102590.88;5094954;28;20471;-78
2022/03/27 04:09:00;;;;;;;0.40;0.40;;;;;;;2.19;95.16;102596.00;5094759;28;20539;-78
2022/03/27 04:11:26;;;;;;;0.40;0.30;;;;;;;2.20;95.79;102588.81;5094746;28;20484;-77
2022/03/27 04:13:54;;;;;;;0.50;0.37;;;;;;;2.18;95.46;102588.19;5095913;28;20459;-77
2022/03/27 04:16:21;;;;;;;0.40;0.40;;;;;;;2.37;94.56;102594.69;5099076;28;20461;-78
2022/03/27 04:18:47;;;;;;;0.40;0.30;;;;;;;2.43;93.86;102591.22;5100844;28;20441;-79
2022/03/27 04:21:41;;;;;;;0.50;0.40;;;;;;;2.07;95.70;102584.19;5096727;28;20459;-79
2022/03/27 04:24:07;;;;;;;0.80;0.80;;;;;;;2.02;96.17;102583.94;5097012;28;20431;-79
2022/03/27 04:26:34;;;;;;;0.40;0.30;;;;;;;1.96;96.06;102590.91;5096381;28;20473;-79
2022/03/27 04:29:03;;;;;;;0.90;0.90;;;;;;;2.03;95.52;102585.59;5096311;28;20440;-79
2022/03/27 04:31:30;;;;;;;0.40;0.30;;;;;;;2.04;93.61;102595.28;5095504;28;20491;-78
2022/03/27 04:33:56;;;;;;;0.40;0.30;;;;;;;1.92;92.58;102594.16;5095645;28;20460;-79
2022/03/27 04:36:23;;;;;;;0.40;0.30;;;;;;;1.85;93.77;102591.41;5095464;28;20977;-79
2022/03/27 04:38:50;;;;;;;0.40;0.30;;;;;;;1.80;94.49;102598.38;5096008;28;20432;-79
2022/03/27 04:41:16;;;;;;;0.40;0.30;;;;;;;1.83;94.36;102598.00;5099020;28;20452;-79
2022/03/27 04:43:43;;;;;;;0.40;0.30;;;;;;;1.91;94.16;102587.16;5100083;28;20440;-79
2022/03/27 04:46:11;;;;;;;0.40;0.30;;;;;;;1.99;93.54;102574.50;5100188;28;20464;-78
2022/03/27 04:48:37;;;;;;;0.40;0.30;;;;;;;1.99;93.79;102587.84;5099586;28;20787;-78
2022/03/27 04:51:04;;;;;;;0.40;0.30;;;;;;;2.00;92.38;102583.34;5099541;28;20476;-78
2022/03/27 04:53:30;;;;;;;0.40;0.30;;;;;;;2.03;91.47;102574.91;5099734;28;20448;-78
2022/03/27 04:55:56;;;;;;;0.40;0.30;;;;;;;1.93;92.44;102577.94;5099556;28;20436;-78
2022/03/27 04:58:24;;;;;;;2.03;1.93;;;;;;;1.96;93.21;102574.88;5099515;28;20436;-78
2022/03/27 05:00:50;;;;;;;0.40;0.30;;;;;;;1.83;92.33;102574.78;5100022;28;20450;-78
2022/03/27 05:03:18;;;;;;;0.40;0.30;;;;;;;1.88;91.83;102587.56;5099494;28;20448;-78
2022/03/27 05:05:44;;;;;;;0.40;0.30;;;;;;;2.02;90.21;102579.44;5099396;28;20437;-78
2022/03/27 05:08:11;;;;;;;0.40;0.30;;;;;;;1.97;90.28;102581.03;5099578;28;20445;-78
2022/03/27 05:10:39;;;;;;;0.40;0.40;;;;;;;1.67;91.34;102581.19;5098888;28;20455;-78
2022/03/27 05:13:06;;;;;;;0.40;0.40;;;;;;;1.65;92.78;102593.13;5099386;28;20436;-78
2022/03/27 05:15:32;;;;;;;0.40;0.30;;;;;;;1.64;93.12;102592.28;5099346;28;20571;-79
2022/03/27 05:17:59;;;;;;;0.50;0.40;;;;;;;1.67;93.75;102588.41;5098840;28;20466;-78
2022/03/27 05:20:29;;;;;;;0.40;0.30;;;;;;;1.73;95.05;102590.31;5099168;28;20780;-78
2022/03/27 05:22:56;;;;;;;0.40;0.30;;;;;;;1.85;94.38;102587.94;5099265;28;20444;-78
2022/03/27 05:25:23;;;;;;;0.40;0.30;;;;;;;1.86;95.11;102590.44;5099066;28;20444;-78
2022/03/27 05:27:53;;;;;;;0.40;0.30;;;;;;;1.86;95.06;102595.78;5098965;28;21004;-78
2022/03/27 05:30:22;;;;;;;3.60;3.40;;;;;;;1.96;95.16;102604.28;5098692;28;20524;-78
2022/03/27 05:32:48;;;;;;;4.93;4.13;;;;;;;2.07;94.64;102608.25;5099113;28;20480;-78
2022/03/27 05:35:15;;;;;;;0.40;0.30;;;;;;;1.99;95.43;102603.03;5098699;28;20444;-78
2022/03/27 05:37:44;;;;;;;0.50;0.40;;;;;;;1.90;95.89;102596.19;5098878;28;20982;-78
2022/03/27 05:40:13;;;;;;;0.40;0.30;;;;;;;1.90;96.01;102602.34;5098914;28;20452;-78
2022/03/27 05:42:40;;;;;;;4.83;4.63;;;;;;;1.92;96.84;102611.03;5098977;28;20444;-78
2022/03/27 05:45:09;;;;;;;5.43;5.20;;;;;;;1.91;96.64;102611.22;5098488;28;20451;-78
2022/03/27 05:47:37;;;;;;;2.10;2.00;;;;;;;1.90;96.64;102617.56;5097813;28;20444;-78
2022/03/27 05:50:05;;;;;;;0.40;0.30;;;;;;;1.99;95.40;102613.72;5097620;28;20440;-78
2022/03/27 05:52:31;;;;;;;0.80;0.80;;;;;;;2.09;94.73;102621.44;5096723;28;20480;-78
2022/03/27 05:54:59;;;;;;;0.40;0.40;;;;;;;2.05;95.09;102617.50;5097538;28;20440;-78
2022/03/27 05:57:26;;;;;;;0.40;0.30;;;;;;;2.02;94.92;102616.03;5096905;28;20821;-78
2022/03/27 05:59:52;;;;;;;1.23;1.23;;;;;;;2.14;94.77;102627.84;5097132;28;20479;-78
2022/03/27 06:02:19;;;;;;;0.40;0.30;;;;;;;2.26;94.31;102622.81;5096993;28;20449;-78
2022/03/27 06:04:45;;;;;;;2.37;2.27;;;;;;;2.40;94.87;102635.22;5096694;28;20451;-78
2022/03/27 06:07:12;;;;;;;0.67;0.67;;;;;;;2.58;94.96;102644.59;5096263;28;20449;-79
2022/03/27 06:09:39;;;;;;;0.40;0.30;;;;;;;2.62;95.68;102643.19;5096148;28;20436;-79
2022/03/27 06:12:08;;;;;;;0.77;0.77;;;;;;;2.59;96.14;102648.91;5096061;28;20479;-78
2022/03/27 06:14:35;;;;;;;0.40;0.40;;;;;;;2.61;95.75;102654.88;5096175;28;20477;-79
2022/03/27 06:17:01;;;;;;;0.40;0.30;;;;;;;2.68;95.08;102651.22;5095930;28;20467;-79
2022/03/27 06:19:30;;;;;;;0.40;0.30;;;;;;;2.76;95.44;102656.44;5095904;28;20448;-79
2022/03/27 06:21:57;;;;;;;0.40;0.30;;;;;;;2.85;96.12;102653.59;5098739;28;20502;-79
2022/03/27 06:24:23;;;;;;;0.40;0.30;;;;;;;2.96;95.25;102663.72;5097519;28;20940;-79
2022/03/27 06:26:50;;;;;;;8.70;8.23;;;;;;;2.95;96.47;102654.03;5098203;28;20834;-79
2022/03/27 06:29:20;;;;;;;0.40;0.30;;;;;;;3.04;97.35;102650.16;5098206;28;20444;-79
2022/03/27 06:31:48;;;;;;;0.40;0.30;;;;;;;3.16;97.35;102656.63;5098179;28;20560;-79
2022/03/27 06:34:14;;;;;;;6.13;5.10;;;;;;;3.32;96.65;102655.44;5097839;28;20498;-79
2022/03/27 06:36:42;;;;;;;1.17;1.17;;;;;;;3.57;96.49;102669.09;5098562;28;20464;-79
2022/03/27 06:39:09;;;;;;;0.40;0.40;;;;;;;3.77;95.54;102658.44;5099568;28;20513;-79
2022/03/27 06:41:35;;;;;;;3.90;3.50;;;;;;;3.87;94.89;102661.53;5099864;28;20509;-79
2022/03/27 06:44:02;;;;;;;0.77;0.77;;;;;;;3.95;94.00;102655.97;5100403;28;20440;-79
2022/03/27 06:46:30;;;;;;;13.90;10.50;;;;;;;4.02;94.23;102662.13;5100876;28;20467;-79
2022/03/27 06:48:57;;;;;;;0.40;0.30;;;;;;;4.18;93.63;102674.31;5106400;28;20444;-79
2022/03/27 06:51:23;;;;;;;0.40;0.30;;;;;;;4.30;93.68;102666.50;5104951;28;20476;-79
2022/03/27 06:53:50;;;;;;;0.40;0.30;;;;;;;4.40;93.99;102658.03;5098282;28;20444;-79
2022/03/27 06:56:17;;;;;;;0.40;0.30;;;;;;;4.61;93.81;102667.69;5097358;28;20464;-79
2022/03/27 06:58:43;;;;;;;0.40;0.30;;;;;;;4.71;95.25;102674.25;5097149;28;20451;-78
2022/03/27 07:03:55;;;;;;;0.40;0.30;;;;;;;5.03;96.24;102666.31;5096236;28;20959;-78
2022/03/27 07:06:21;;;;;;;0.40;0.30;;;;;;;5.11;97.55;102666.09;5096192;28;21005;-78
2022/03/27 07:08:48;;;;;;;0.40;0.40;;;;;;;5.26;97.41;102669.31;5096788;28;20465;-79
2022/03/27 07:11:15;;;;;;;0.40;0.30;;;;;;;5.41;97.48;102677.13;5096681;28;20456;-79
2022/03/27 07:13:42;;;;;;;0.40;0.30;;;;;;;5.57;97.53;102673.09;5096278;28;20444;-79
2022/03/27 07:16:10;;;;;;;0.40;0.40;;;;;;;5.69;98.01;102674.03;5096552;28;20491;-78
2022/03/27 07:18:36;;;;;;;0.40;0.30;;;;;;;5.86;97.73;102674.34;5096289;28;20813;-79
2022/03/27 07:21:04;;;;;;;0.40;0.30;;;;;;;6.07;97.82;102678.59;5095805;28;20436;-78
2022/03/27 07:23:30;;;;;;;1.83;1.73;;;;;;;6.27;97.66;102668.47;5096003;28;20487;-79
2022/03/27 07:25:57;;;;;;;0.40;0.30;;;;;;;6.48;97.94;102669.94;5095533;28;20957;-79
2022/03/27 07:28:24;;;;;;;0.40;0.30;;;;;;;6.69;97.69;102663.31;5096099;28;20502;-79
2022/03/27 07:30:51;;;;;;;0.40;0.40;;;;;;;6.86;97.05;102665.38;5095861;28;20494;-78
2022/03/27 07:33:19;;;;;;;0.40;0.30;;;;;;;7.00;96.50;102658.81;5095866;28;20480;-79
2022/03/27 07:35:45;;;;;;;0.57;0.33;;;;;;;7.11;96.40;102655.34;5096234;28;20440;-78
2022/03/27 07:38:15;;;;;;;0.40;0.30;;;;;;;7.22;95.93;102656.47;5095533;28;20451;-79
2022/03/27 07:40:42;;;;;;;0.40;0.30;;;;;;;7.40;95.94;102663.72;5096367;28;20436;-79
2022/03/27 07:43:08;;;;;;;0.53;0.53;;;;;;;7.47;96.41;102667.13;5096434;28;20444;-79
2022/03/27 07:45:36;;;;;;;0.40;0.30;;;;;;;7.61;96.20;102662.34;5094958;28;20937;-78
2022/03/27 07:48:03;;;;;;;0.40;0.30;;;;;;;7.81;97.33;102666.41;5095841;28;20469;-78
2022/03/27 07:50:31;;;;;;;0.40;0.30;;;;;;;8.06;97.75;102657.31;5095784;28;20496;-78
2022/03/27 07:52:59;;;;;;;0.50;0.37;;;;;;;8.28;98.10;102674.59;5095207;28;20480;-78
2022/03/27 07:55:27;;;;;;;0.40;0.30;;;;;;;8.53;97.58;102671.69;5095159;28;20471;-77
2022/03/27 07:57:53;;;;;;;0.40;0.30;;;;;;;8.68;96.50;102676.63;5094439;28;21000;-78
2022/03/27 08:00:20;;;;;;;0.40;0.30;;;;;;;8.81;95.95;102679.06;5103065;22;20497;-72
2022/03/27 08:02:47;;;;;;;0.40;0.30;;;;;;;8.93;95.76;102672.81;5073118;28;20510;-73
2022/03/27 08:05:13;;;;;;;0.40;0.30;;;;;;;9.05;95.17;102668.19;5072669;28;20437;-74
2022/03/27 08:07:40;;;;;;;0.40;0.30;;;;;;;9.12;94.47;102673.47;5072584;28;20437;-73
2022/03/27 08:10:08;;;;;;;0.40;0.30;;;;;;;9.22;94.28;102663.69;5072755;28;20491;-73
2022/03/27 08:12:37;;;;;;;0.40;0.30;;;;;;;9.35;93.54;102666.09;5072257;28;20998;-73
2022/03/27 08:15:04;;;;;;;0.40;0.30;;;;;;;9.45;93.52;102656.53;5072411;28;20844;-73
2022/03/27 08:17:30;;;;;;;0.40;0.30;;;;;;;9.56;92.66;102661.06;5072728;28;20444;-73
2022/03/27 08:19:57;;;;;;;6.00;4.00;;;;;;;9.68;92.39;102658.31;5072450;28;20461;-73
2022/03/27 08:22:24;;;;;;;1.23;1.13;;;;;;;9.78;92.56;102663.88;5072614;28;20441;-74
2022/03/27 08:24:51;;;;;;;0.40;0.30;;;;;;;9.90;91.71;102659.22;5072651;28;20977;-73
2022/03/27 08:27:16;;;;;;;0.40;0.30;;;;;;;10.02;90.74;102662.69;5073084;28;20449;-73
2022/03/27 08:29:51;;;;;;;0.40;0.30;;;;;;;10.10;90.04;102650.63;5073800;28;20488;-73
2022/03/27 08:32:18;;;;;;;0.60;0.60;;;;;;;10.17;89.67;102653.16;5072993;28;20207;-73
2022/03/27 08:34:47;;;;;;;0.40;0.30;;;;;;;10.28;88.72;102663.13;5073016;28;20436;-73
2022/03/27 08:37:16;;;;;;;0.40;0.30;;;;;;;10.37;88.48;102658.13;5072951;28;20430;-73
2022/03/27 08:39:44;;;;;;;0.40;0.30;;;;;;;10.44;88.32;102653.31;5072837;28;20546;-73
2022/03/27 08:42:12;;;;;;;0.40;0.30;;;;;;;10.59;87.84;102653.56;5072880;28;20434;-73
2022/03/27 08:44:39;;;;;;;0.40;0.30;;;;;;;10.69;87.13;102653.69;5072972;28;20441;-73
2022/03/27 08:47:14;;;;;;;0.40;0.30;;;;;;;10.77;85.60;102655.16;5072539;28;20842;-73
2022/03/27 08:49:43;;;;;;;0.40;0.30;;;;;;;10.83;85.83;102641.41;5072466;28;20464;-74
2022/03/27 08:52:11;;;;;;;0.77;0.77;;;;;;;10.93;83.51;102643.41;5072783;28;20496;-73
2022/03/27 08:54:43;;;;;;;0.40;0.30;;;;;;;11.00;83.93;102643.22;5072506;28;20445;-73
2022/03/27 08:57:23;;;;;;;0.53;0.53;;;;;;;11.15;82.23;102656.16;5072833;28;20517;-72
2022/03/27 08:59:53;;;;;;;0.40;0.30;;;;;;;11.23;81.34;102658.41;5072571;28;20497;-72
2022/03/27 09:02:23;;;;;;;0.40;0.30;;;;;;;11.24;82.46;102655.44;5072880;28;20476;-74
2022/03/27 09:04:53;;;;;;;0.77;0.77;;;;;;;11.34;81.36;102655.56;5072720;28;20469;-73
2022/03/27 09:07:20;;;;;;;0.40;0.30;;;;;;;11.48;82.25;102655.97;5072629;28;20580;-74
2022/03/27 09:09:46;;;;;;;0.40;0.40;;;;;;;11.66;82.75;102652.09;5072801;28;20473;-72
2022/03/27 09:12:14;;;;;;;0.40;0.30;;;;;;;11.80;81.25;102656.00;5072569;28;20896;-72
2022/03/27 09:14:42;;;;;;;0.40;0.30;;;;;;;11.93;77.18;102648.53;5072652;28;20469;-73
2022/03/27 09:17:09;;;;;;;0.40;0.30;;;;;;;12.02;77.44;102650.53;5072629;28;20441;-72
2022/03/27 09:19:39;;;;;;;0.40;0.30;;;;;;;12.07;76.62;102647.84;5072503;28;20469;-73
2022/03/27 09:22:14;;;;;;;0.40;0.30;;;;;;;12.04;76.49;102652.97;5072575;28;20445;-72
2022/03/27 09:24:41;;;;;;;0.40;0.20;;;;;;;12.01;76.26;102650.78;5072548;28;20460;-72
2022/03/27 09:27:08;;;;;;;0.40;0.30;;;;;;;12.02;76.07;102638.84;5074928;28;20506;-72
2022/03/27 09:29:57;;;;;;;0.40;0.30;;;;;;;12.12;76.83;102641.63;5075943;28;20472;-72
2022/03/27 09:32:28;;;;;;;0.40;0.30;;;;;;;12.27;76.26;102654.50;5075966;28;20488;-72
2022/03/27 09:35:05;;;;;;;0.40;0.30;;;;;;;12.27;73.56;102647.19;5075998;28;20438;-72
2022/03/27 09:37:33;;;;;;;0.40;0.27;;;;;;;12.27;72.93;102647.19;5075664;28;20961;-71
2022/03/27 09:39:59;;;;;;;0.40;0.30;;;;;;;12.31;72.95;102650.19;5075767;28;20453;-73
2022/03/27 09:42:26;;;;;;;0.40;0.27;;;;;;;12.37;72.63;102644.53;5075857;28;20441;-72
2022/03/27 09:45:11;;;;;;;0.40;0.30;;;;;;;12.41;72.15;102633.94;5075755;28;20456;-73
2022/03/27 09:47:38;;;;;;;0.40;0.30;;;;;;;12.53;72.56;102633.75;5075814;28;20460;-73
2022/03/27 09:50:08;;;;;;;0.40;0.30;;;;;;;12.67;71.31;102637.63;5075600;28;20469;-72
2022/03/27 09:52:34;;;;;;;0.77;0.77;;;;;;;12.72;71.04;102637.66;5075447;28;20488;-72
2022/03/27 09:55:03;;;;;;;0.40;0.30;;;;;;;12.82;70.27;102628.72;5075589;28;20503;-72
2022/03/27 09:57:32;;;;;;;0.40;0.30;;;;;;;12.93;70.25;102629.59;5075622;28;20437;-73
2022/03/27 10:00:00;;;;;;;0.40;0.30;;;;;;;13.05;70.17;102628.25;5075236;28;20461;-71
2022/03/27 10:02:28;;;;;;;0.50;0.30;;;;;;;13.11;70.19;102618.22;5075203;28;20921;-70
2022/03/27 10:05:03;;;;;;;0.40;0.30;;;;;;;13.36;67.44;102626.44;5075129;28;21004;-70
2022/03/27 10:07:40;;;;;;;0.40;0.30;;;;;;;13.45;66.81;102610.41;5075478;28;20841;-71
2022/03/27 10:10:09;;;;;;;0.40;0.30;;;;;;;13.59;66.93;102619.69;5075376;28;20465;-71
2022/03/27 10:12:37;;;;;;;0.40;0.30;;;;;;;13.69;66.07;102621.59;5075284;28;20990;-71
2022/03/27 10:15:06;;;;;;;0.40;0.30;;;;;;;13.68;64.64;102613.69;5075445;28;20445;-71
2022/03/27 10:17:34;;;;;;;0.40;0.30;;;;;;;13.76;63.08;102613.16;5075012;28;20452;-71
2022/03/27 10:20:06;;;;;;;0.40;0.30;;;;;;;13.88;63.22;102600.88;5075142;28;20472;-71
2022/03/27 10:22:37;;;;;;;0.40;0.30;;;;;;;14.02;62.72;102606.59;5075161;28;20417;-71
2022/03/27 10:25:09;;;;;;;0.40;0.30;;;;;;;14.19;61.90;102597.31;5074940;28;20870;-70
2022/03/27 10:27:37;;;;;;;0.40;0.30;;;;;;;14.28;61.27;102592.94;5075112;28;20449;-71
2022/03/27 10:30:05;;;;;;;1.07;1.07;;;;;;;14.32;60.76;102594.81;5074914;28;21018;-71
2022/03/27 10:32:32;;;;;;;0.40;0.30;;;;;;;14.34;61.13;102602.72;5074925;28;20477;-70
2022/03/27 10:35:06;;;;;;;0.40;0.30;;;;;;;14.47;60.70;102599.41;5074891;28;20511;-71
2022/03/27 10:37:36;;;;;;;0.40;0.27;;;;;;;14.52;59.64;102593.16;5075259;28;20430;-71
2022/03/27 10:40:11;;;;;;;0.40;0.30;;;;;;;14.55;58.29;102601.59;5074935;28;20468;-71
2022/03/27 10:42:48;;;;;;;0.40;0.30;;;;;;;14.55;57.93;102592.59;5074760;28;20861;-71
2022/03/27 10:45:17;;;;;;;0.40;0.20;;;;;;;14.63;58.90;102589.31;5074804;28;20428;-71
2022/03/27 10:47:44;;;;;;;0.40;0.30;;;;;;;14.79;59.19;102584.59;5074682;28;20445;-71
2022/03/27 10:50:24;;;;;;;0.40;0.30;;;;;;;14.78;57.68;102582.94;5074754;28;20469;-71
2022/03/27 10:53:11;;;;;;;0.40;0.30;;;;;;;14.89;58.76;102587.28;5074642;28;20550;-71
2022/03/27 10:55:42;;;;;;;0.40;0.30;;;;;;;14.92;56.71;102585.88;5074573;28;20436;-70
2022/03/27 10:58:32;;;;;;;0.40;0.30;;;;;;;14.96;56.43;102584.22;5074412;28;20503;-71
2022/03/27 11:01:01;;;;;;;0.40;0.20;;;;;;;15.22;56.17;102585.72;5074053;28;20477;-71
2022/03/27 11:03:45;;;;;;;0.40;0.20;;;;;;;15.29;55.22;102580.75;5074502;28;20495;-70
2022/03/27 11:06:28;;;;;;;0.40;0.30;;;;;;;15.63;54.03;102563.56;5074365;28;20437;-71
2022/03/27 11:08:56;;;;;;;0.40;0.30;;;;;;;15.88;54.38;102574.28;5074351;28;20448;-71
2022/03/27 11:12:03;;;;;;;0.40;0.20;;;;;;;15.99;53.67;102564.06;5073951;28;20472;-71
2022/03/27 11:15:00;;;;;;;0.40;0.30;;;;;;;16.11;53.17;102558.19;5073996;28;20505;-70
2022/03/27 11:17:37;;;;;;;0.40;0.30;;;;;;;16.06;52.80;102550.88;5073644;28;20909;-70
2022/03/27 11:20:04;;;;;;;0.40;0.30;;;;;;;16.14;52.91;102552.97;5073941;28;20457;-70
2022/03/27 11:22:49;;;;;;;0.40;0.30;;;;;;;16.61;50.28;102547.78;5073489;28;20528;-69
2022/03/27 11:25:33;;;;;;;0.40;0.23;;;;;;;17.40;48.45;102551.56;5073714;28;20445;-71
2022/03/27 11:28:12;;;;;;;0.40;0.30;;;;;;;18.67;46.25;102551.09;5074261;28;20501;-72
2022/03/27 11:30:41;;;;;;;0.40;0.30;;;;;;;19.56;44.61;102543.28;5074637;28;20546;-72
2022/03/27 11:33:18;;;;;;;0.40;0.20;;;;;;;19.65;43.27;102555.16;5073685;28;20521;-73
2022/03/27 11:36:23;;;;;;;0.40;0.30;;;;;;;19.27;44.21;102547.31;5073630;28;20506;-70
2022/03/27 11:39:02;;;;;;;0.40;0.30;;;;;;;19.26;45.31;102545.69;5073573;28;20448;-70
2022/03/27 11:41:31;;;;;;;0.40;0.20;;;;;;;20.32;43.49;102544.00;5073514;28;20457;-70